createdAt,value
2023-01-11T00:03:07.569Z,94901
2023-01-11T00:06:32.862Z,94899
2023-01-11T00:09:58.091Z,94894
2023-01-11T00:13:23.430Z,94896
2023-01-11T00:16:48.661Z,94903
2023-01-11T00:20:13.970Z,94912
2023-01-11T00:23:39.296Z,94925
2023-01-11T00:27:04.542Z,94920
2023-01-11T00:30:29.828Z,94901
2023-01-11T00:33:55.123Z,94904
2023-01-11T00:37:20.333Z,94908
2023-01-11T00:40:45.636Z,94903
2023-01-11T00:44:10.994Z,94906
2023-01-11T00:47:36.287Z,94901
2023-01-11T00:51:01.548Z,94896
2023-01-11T00:54:26.844Z,94882
2023-01-11T00:57:52.170Z,94887
2023-01-11T01:01:17.525Z,94896
2023-01-11T01:04:42.759Z,94877
2023-01-11T01:08:08.054Z,94863
2023-01-11T01:11:33.300Z,94864
2023-01-11T01:14:58.570Z,94858
2023-01-11T01:18:23.844Z,94866
2023-01-11T01:21:49.135Z,94859
2023-01-11T01:25:14.478Z,94865
2023-01-11T01:28:39.718Z,94856
2023-01-11T01:32:05.005Z,94863
2023-01-11T01:35:30.327Z,94859
2023-01-11T01:38:55.641Z,94859
2023-01-11T01:42:20.875Z,94870
2023-01-11T01:45:46.119Z,94869
2023-01-11T01:49:11.414Z,94870
2023-01-11T01:52:36.760Z,94873
2023-01-11T01:56:02.145Z,94876
2023-01-11T01:59:27.373Z,94873
2023-01-11T02:02:52.764Z,94869
2023-01-11T02:06:17.917Z,94860
2023-01-11T02:09:43.184Z,94856
2023-01-11T02:13:08.502Z,94849
2023-01-11T02:16:33.756Z,94845
2023-01-11T02:19:59.093Z,94846
2023-01-11T02:23:24.387Z,94839
2023-01-11T02:26:49.668Z,94836
2023-01-11T02:30:14.980Z,94827
2023-01-11T02:33:40.239Z,94830
2023-01-11T02:37:05.525Z,94831
2023-01-11T02:40:30.824Z,94818
2023-01-11T02:43:56.143Z,94820
2023-01-11T02:47:21.417Z,94813
2023-01-11T02:50:46.725Z,94820
2023-01-11T02:54:11.985Z,94811
2023-01-11T02:57:37.251Z,94805
2023-01-11T03:01:02.540Z,94795
2023-01-11T03:04:27.844Z,94805
2023-01-11T03:07:53.085Z,94797
2023-01-11T03:11:18.331Z,94791
2023-01-11T03:14:43.641Z,94791
2023-01-11T03:18:08.920Z,94785
2023-01-11T03:21:34.230Z,94792
2023-01-11T03:24:59.481Z,94779
2023-01-11T03:28:24.754Z,94770
2023-01-11T03:31:50.013Z,94762
2023-01-11T03:35:15.298Z,94769
2023-01-11T03:38:40.589Z,94759
2023-01-11T03:42:05.892Z,94753
2023-01-11T03:45:31.185Z,94762
2023-01-11T03:48:56.440Z,94753
2023-01-11T03:52:21.680Z,94751
2023-01-11T03:55:46.978Z,94753
2023-01-11T03:59:12.217Z,94756
2023-01-11T04:02:37.476Z,94748
2023-01-11T04:06:02.773Z,94742
2023-01-11T04:09:28.070Z,94738
2023-01-11T04:12:53.451Z,94734
2023-01-11T04:16:18.648Z,94730
2023-01-11T04:19:43.845Z,94726
2023-01-11T04:23:09.108Z,94725
2023-01-11T04:26:34.449Z,94728
2023-01-11T04:29:59.731Z,94722
2023-01-11T04:33:24.947Z,94718
2023-01-11T04:36:50.376Z,94715
2023-01-11T04:40:15.654Z,94708
2023-01-11T04:43:40.918Z,94701
2023-01-11T04:47:06.178Z,94707
2023-01-11T04:50:31.444Z,94705
2023-01-11T04:53:56.660Z,94709
2023-01-11T04:57:21.898Z,94692
2023-01-11T05:00:47.219Z,94685
2023-01-11T05:04:13.553Z,94681
2023-01-11T05:07:37.604Z,94676
2023-01-11T05:11:02.882Z,94677
2023-01-11T05:14:28.119Z,94673
2023-01-11T05:17:53.355Z,94675
2023-01-11T05:21:18.613Z,94681
2023-01-11T05:24:43.848Z,94681
2023-01-11T05:28:09.112Z,94682
2023-01-11T05:31:34.409Z,94685
2023-01-11T05:34:59.611Z,94677
2023-01-11T05:38:24.877Z,94668
2023-01-11T05:41:50.206Z,94676
2023-01-11T05:45:15.484Z,94674
2023-01-11T05:48:40.819Z,94676
2023-01-11T05:52:06.179Z,94674
2023-01-11T05:55:31.611Z,94672
2023-01-11T05:58:56.892Z,94662
2023-01-11T06:02:22.343Z,94658
2023-01-11T06:05:47.490Z,94656
2023-01-11T06:09:12.787Z,94654
2023-01-11T06:12:38.073Z,94668
2023-01-11T06:16:03.346Z,94669
2023-01-11T06:19:28.670Z,94661
2023-01-11T06:22:53.945Z,94674
2023-01-11T06:26:19.220Z,94664
2023-01-11T06:29:44.500Z,94658
2023-01-11T06:33:09.836Z,94649
2023-01-11T06:36:35.092Z,94630
2023-01-11T06:40:00.377Z,94638
2023-01-11T06:43:25.644Z,94643
2023-01-11T06:46:50.965Z,94643
2023-01-11T06:50:16.209Z,94650
2023-01-11T06:53:41.489Z,94644
2023-01-11T06:57:06.723Z,94634
2023-01-11T07:00:31.997Z,94635
2023-01-11T07:03:57.270Z,94636
2023-01-11T07:07:22.484Z,94630
2023-01-11T07:10:47.809Z,94632
2023-01-11T07:14:13.103Z,94642
2023-01-11T07:17:38.508Z,94643
2023-01-11T07:21:04.048Z,94633
2023-01-11T07:24:29.355Z,94630
2023-01-11T07:27:54.680Z,94623
2023-01-11T07:31:20.014Z,94618
2023-01-11T07:34:45.443Z,94630
2023-01-11T07:38:10.756Z,94623
2023-01-11T07:41:36.007Z,94625
2023-01-11T07:45:01.355Z,94628
2023-01-11T07:48:27.281Z,94632
2023-01-11T07:51:51.962Z,94624
2023-01-11T07:55:17.278Z,94622
2023-01-11T07:58:42.598Z,94625
2023-01-11T08:02:07.866Z,94626
2023-01-11T08:05:33.311Z,94632
2023-01-11T08:08:58.736Z,94625
2023-01-11T08:12:24.026Z,94614
2023-01-11T08:15:49.270Z,94614
2023-01-11T08:19:14.516Z,94610
2023-01-11T08:22:39.777Z,94608
2023-01-11T08:26:05.034Z,94608
2023-01-11T08:29:30.324Z,94609
2023-01-11T08:32:55.585Z,94602
2023-01-11T08:36:20.823Z,94599
2023-01-11T08:39:46.077Z,94593
2023-01-11T08:43:11.339Z,94584
2023-01-11T08:46:36.633Z,94595
2023-01-11T08:50:01.830Z,94594
2023-01-11T08:53:27.090Z,94601
2023-01-11T08:56:52.367Z,94600
2023-01-11T09:00:18.030Z,94600
2023-01-11T09:03:43.369Z,94608
2023-01-11T09:07:08.632Z,94600
2023-01-11T09:10:33.938Z,94601
2023-01-11T09:13:59.210Z,94603
2023-01-11T09:17:24.470Z,94599
2023-01-11T09:20:49.753Z,94599
2023-01-11T09:24:15.002Z,94606
2023-01-11T09:27:40.269Z,94605
2023-01-11T09:31:05.561Z,94610
2023-01-11T09:34:30.924Z,94606
2023-01-11T09:37:56.074Z,94605
2023-01-11T09:41:21.338Z,94605
2023-01-11T09:44:46.584Z,94604
2023-01-11T09:48:11.874Z,94603
2023-01-11T09:51:37.137Z,94602
2023-01-11T09:55:02.437Z,94596
2023-01-11T09:58:27.690Z,94592
2023-01-11T10:01:52.957Z,94590
2023-01-11T10:05:18.236Z,94589
2023-01-11T10:18:24.607Z,94593
2023-01-11T10:19:25.071Z,94589
2023-01-11T10:22:24.574Z,94580
2023-01-11T10:25:50.397Z,94581
2023-01-11T10:29:15.696Z,94573
2023-01-11T10:32:40.911Z,94567
2023-01-11T10:36:06.155Z,94569
2023-01-11T10:39:31.433Z,94562
2023-01-11T10:42:56.691Z,94567
2023-01-11T10:46:21.965Z,94570
2023-01-11T10:49:47.144Z,94575
2023-01-11T10:53:12.387Z,94569
2023-01-11T10:56:42.628Z,94566
2023-01-11T11:00:02.884Z,94570
2023-01-11T11:03:28.163Z,94567
2023-01-11T11:06:53.382Z,94563
2023-01-11T11:10:18.626Z,94561
2023-01-11T11:13:43.891Z,94565
2023-01-11T11:17:09.160Z,94562
2023-01-11T11:20:34.485Z,94559
2023-01-11T11:23:59.634Z,94558
2023-01-11T11:27:24.949Z,94555
2023-01-11T11:30:50.199Z,94555
2023-01-11T11:34:15.420Z,94540
2023-01-11T11:37:40.719Z,94529
2023-01-11T11:41:05.946Z,94526
2023-01-11T11:44:31.200Z,94520
2023-01-11T11:47:56.446Z,94516
2023-01-11T11:51:21.706Z,94510
2023-01-11T11:54:46.974Z,94509
2023-01-11T11:58:12.234Z,94502
2023-01-11T12:01:37.478Z,94495
2023-01-11T12:05:02.806Z,94494
2023-01-11T12:08:27.989Z,94491
2023-01-11T12:11:53.269Z,94494
2023-01-11T12:15:18.491Z,94499
2023-01-11T12:18:43.737Z,94487
2023-01-11T12:22:09.027Z,94484
2023-01-11T12:25:34.262Z,94479
2023-01-11T12:28:59.574Z,94466
2023-01-11T12:32:24.813Z,94471
2023-01-11T12:35:50.090Z,94470
2023-01-11T12:39:15.372Z,94477
2023-01-11T12:42:40.656Z,94480
2023-01-11T12:46:06.065Z,94482
2023-01-11T12:49:31.269Z,94482
2023-01-11T12:52:56.601Z,94468
2023-01-11T12:56:21.866Z,94470
2023-01-11T12:59:47.156Z,94468
2023-01-11T13:03:12.479Z,94467
2023-01-11T13:06:37.737Z,94466
2023-01-11T13:10:03.182Z,94472
2023-01-11T13:13:28.493Z,94465
2023-01-11T13:16:53.819Z,94469
2023-01-11T13:20:19.081Z,94466
2023-01-11T13:23:44.394Z,94475
2023-01-11T13:27:09.825Z,94471
2023-01-11T13:30:35.141Z,94469
2023-01-11T13:34:00.415Z,94465
2023-01-11T13:37:25.896Z,94465
2023-01-11T13:40:51.000Z,94471
2023-01-11T13:44:16.286Z,94469
2023-01-11T13:47:41.619Z,94474
2023-01-11T13:51:06.899Z,94473
2023-01-11T13:54:32.219Z,94466
2023-01-11T13:57:57.469Z,94466
2023-01-11T14:01:22.827Z,94469
2023-01-11T14:04:48.035Z,94468
2023-01-11T14:08:13.374Z,94466
2023-01-11T14:11:38.719Z,94469
2023-01-11T14:15:03.960Z,94467
2023-01-11T14:18:29.265Z,94469
2023-01-11T14:21:54.662Z,94471
2023-01-11T14:25:19.977Z,94475
2023-01-11T14:28:45.313Z,94492
2023-01-11T15:07:20.922Z,94526
2023-01-11T15:10:46.332Z,94528
2023-01-11T15:14:11.568Z,94537
2023-01-11T15:17:36.840Z,94544
2023-01-11T15:21:02.122Z,94539
2023-01-11T15:24:27.502Z,94545
2023-01-11T15:27:53.263Z,94553
2023-01-11T15:31:18.669Z,94550
2023-01-11T15:34:43.930Z,94551
2023-01-11T15:38:09.380Z,94554
2023-01-11T15:41:34.755Z,94551
2023-01-11T15:45:00.051Z,94556
2023-01-11T15:48:26.083Z,94559
2023-01-11T15:51:51.381Z,94568
2023-01-11T15:55:16.761Z,94569
2023-01-11T15:58:43.144Z,94582
2023-01-11T16:02:09.048Z,94581
2023-01-11T16:05:34.337Z,94578
2023-01-11T16:09:00.200Z,94582
2023-01-11T16:12:25.531Z,94583
2023-01-11T16:15:51.048Z,94583
2023-01-11T16:19:16.417Z,94593
2023-01-11T16:22:41.808Z,94600
2023-01-11T16:26:07.235Z,94605
2023-01-11T16:29:34.533Z,94608
2023-01-11T16:32:59.862Z,94612
2023-01-11T16:36:25.217Z,94618
2023-01-11T16:39:50.529Z,94618
2023-01-11T16:43:15.934Z,94611
2023-01-11T16:46:41.259Z,94634
2023-01-11T16:50:06.568Z,94638
2023-01-11T16:53:31.937Z,94646
2023-01-11T16:56:57.216Z,94660
2023-01-11T17:00:22.499Z,94666
2023-01-11T17:03:47.825Z,94678
2023-01-11T17:07:13.158Z,94693
2023-01-11T17:10:38.343Z,94687
2023-01-11T17:14:03.619Z,94705
2023-01-11T17:17:28.964Z,94698
2023-01-11T17:20:54.396Z,94703
2023-01-11T17:24:19.703Z,94702
2023-01-11T17:27:44.862Z,94699
2023-01-11T17:31:10.121Z,94704
2023-01-11T17:34:35.784Z,94713
2023-01-11T17:38:01.034Z,94707
2023-01-11T17:41:26.399Z,94707
2023-01-11T17:44:51.569Z,94715
2023-01-11T17:48:16.852Z,94723
2023-01-11T17:51:42.114Z,94726
2023-01-11T17:55:07.357Z,94733
2023-01-11T17:58:32.602Z,94736
2023-01-11T18:01:58.000Z,94742
2023-01-11T18:05:23.081Z,94744
2023-01-11T18:08:48.346Z,94745
2023-01-11T18:12:13.612Z,94754
2023-01-11T18:15:38.922Z,94767
2023-01-11T18:19:04.127Z,94775
2023-01-11T18:22:29.393Z,94771
2023-01-11T18:25:54.693Z,94775
2023-01-11T18:29:19.936Z,94768
2023-01-11T18:32:45.330Z,94775
2023-01-11T18:36:10.590Z,94771
2023-01-11T18:39:35.938Z,94779
2023-01-11T18:43:01.226Z,94782
2023-01-11T18:46:26.553Z,94786
2023-01-11T18:49:52.006Z,94786
2023-01-11T18:53:17.222Z,94785
2023-01-11T18:56:42.585Z,94792
2023-01-11T19:00:07.885Z,94793
2023-01-11T19:03:34.091Z,94796
2023-01-11T19:06:59.531Z,94797
2023-01-11T19:10:24.849Z,94795
2023-01-11T19:13:50.157Z,94799
2023-01-11T19:17:15.527Z,94801
2023-01-11T19:20:40.813Z,94808
2023-01-11T19:24:06.168Z,94802
2023-01-11T19:27:31.428Z,94807
2023-01-11T19:30:56.879Z,94804
2023-01-11T19:34:22.165Z,94810
2023-01-11T19:37:47.549Z,94812
2023-01-11T19:41:12.983Z,94816
2023-01-11T19:44:38.350Z,94806
2023-01-11T19:48:03.711Z,94817
2023-01-11T19:51:29.059Z,94807
2023-01-11T19:54:54.405Z,94805
2023-01-11T19:58:19.718Z,94805
2023-01-11T20:01:45.085Z,94797
2023-01-11T20:05:10.371Z,94811
2023-01-11T20:08:35.649Z,94818
2023-01-11T20:12:00.962Z,94824
2023-01-11T20:15:26.299Z,94827
2023-01-11T20:18:51.564Z,94835
2023-01-11T20:22:16.888Z,94841
2023-01-11T20:25:42.154Z,94847
2023-01-11T20:29:07.533Z,94845
2023-01-11T20:32:41.292Z,94850
2023-01-11T20:35:58.161Z,94850
2023-01-11T20:39:23.454Z,94848
2023-01-11T20:42:48.800Z,94858
2023-01-11T20:46:14.138Z,94860
2023-01-11T20:49:39.484Z,94863
2023-01-11T20:53:04.721Z,94859
2023-01-11T20:56:29.952Z,94849
2023-01-11T20:59:55.189Z,94851
2023-01-11T21:03:20.444Z,94846
2023-01-11T21:06:45.725Z,94845
2023-01-11T21:10:10.947Z,94849
2023-01-11T21:13:36.189Z,94851
2023-01-11T21:17:01.464Z,94840
2023-01-11T21:20:26.703Z,94834
2023-01-11T21:23:51.982Z,94834
2023-01-11T21:27:17.279Z,94835
2023-01-11T21:30:42.434Z,94832
2023-01-11T21:34:07.675Z,94833
2023-01-11T21:37:32.935Z,94840
2023-01-11T21:40:58.179Z,94843
2023-01-11T21:44:24.434Z,94834
2023-01-11T21:47:48.653Z,94839
2023-01-11T21:51:15.719Z,94844
2023-01-11T21:54:39.146Z,94855
2023-01-11T21:58:04.432Z,94864
2023-01-11T22:01:29.676Z,94858
2023-01-11T22:04:54.928Z,94853
2023-01-11T22:08:20.178Z,94845
2023-01-11T22:11:45.436Z,94848
2023-01-11T22:15:10.724Z,94858
2023-01-11T22:18:35.947Z,94861
2023-01-11T22:22:01.225Z,94867
2023-01-11T22:25:26.434Z,94871
2023-01-11T22:28:51.675Z,94875
2023-01-11T22:32:16.943Z,94878
2023-01-11T22:35:42.173Z,94868
2023-01-11T22:39:07.407Z,94873
2023-01-11T22:42:32.664Z,94878
2023-01-11T22:45:57.984Z,94883
2023-01-11T22:49:23.177Z,94880
2023-01-11T22:52:48.434Z,94876
2023-01-11T22:56:13.682Z,94887
2023-01-11T22:59:38.928Z,94899
2023-01-11T23:03:04.332Z,94888
2023-01-11T23:06:29.511Z,94886
2023-01-11T23:09:54.733Z,94876
2023-01-11T23:13:19.955Z,94882
2023-01-11T23:16:45.246Z,94881
2023-01-11T23:20:10.440Z,94885
2023-01-11T23:23:35.746Z,94896
2023-01-11T23:27:01.008Z,94902
2023-01-11T23:30:26.201Z,94903
2023-01-11T23:33:51.482Z,94905
2023-01-11T23:37:16.731Z,94894
2023-01-11T23:40:42.017Z,94894
2023-01-11T23:44:07.247Z,94887
2023-01-11T23:47:32.505Z,94891
2023-01-11T23:50:57.766Z,94890
2023-01-11T23:54:23.005Z,94893
2023-01-11T23:57:48.287Z,94905
